This is the latest recevied weather packets stored in our database for station/object SR7U-1. If no packets are shown the sender has not sent any weather packets the latest 10 day(s).
| Time | Temp. | Humidity | Pressure | Rain* | Wind** | Luminosity | Snow |
|---|---|---|---|---|---|---|---|
| 1777688535 | 5.56° C | 79% | 1024.7 hPa | - | - | - | - |
| 1777687645 | 6.67° C | 74% | 1024.7 hPa | - | - | - | - |
| 1777686907 | 6.67° C | 75% | 1024.7 hPa | - | - | - | - |
| 1777686029 | 6.67° C | 75% | 1024.5 hPa | - | - | - | - |
| 1777685168 | 6.67° C | 75% | 1024.6 hPa | - | - | - | - |
| 1777684410 | 7.78° C | 73% | 1024.6 hPa | - | - | - | - |
| 1777683603 | 8.33° C | 70% | 1024.7 hPa | - | - | - | - |
| 1777682750 | 7.78° C | 73% | 1024.6 hPa | - | - | - | - |
| 1777681857 | 7.78° C | 72% | 1024.7 hPa | - | - | - | - |
| 1777681097 | 8.89° C | 69% | 1024.6 hPa | - | - | - | - |
| 1777680328 | 9.44° C | 67% | 1024.7 hPa | - | - | - | - |
| 1777679455 | 9.44° C | 67% | 1024.7 hPa | - | - | - | - |
| 1777678725 | 9.44° C | 67% | 1024.7 hPa | - | - | - | - |
| 1777677963 | 8.89° C | 66% | 1024.7 hPa | - | - | - | - |
| 1777677180 | 9.44° C | 66% | 1024.6 hPa | - | - | - | - |
| 1777676310 | 9.44° C | 64% | 1024.6 hPa | - | - | - | - |
| 1777675562 | 8.33° C | 68% | 1024.6 hPa | - | - | - | - |
| 1777674785 | 7.78° C | 71% | 1024.5 hPa | - | - | - | - |
| 1777673900 | 7.78° C | 70% | 1024.5 hPa | - | - | - | - |
| 1777673150 | 8.33° C | 69% | 1024.4 hPa | - | - | - | - |
| 1777672420 | 10.56° C | 58% | 1024.4 hPa | - | - | - | - |
| 1777671542 | 11.67° C | 58% | 1024.3 hPa | - | - | - | - |
| 1777670700 | 11.67° C | 57% | 1024.3 hPa | - | - | - | - |
| 1777669875 | 11.67° C | 56% | 1024.3 hPa | - | - | - | - |
| 1777669032 | 11.67° C | 57% | 1024.2 hPa | - | - | - | - |
* Rain since midnight (hover to see other rain measurements)
** Current wind speed in m/s (hover to see current wind gust speed)